Time;durP1;ratioP1;P1;durP2;ratioP2;P2;SDS_P1;SDS_P2;PMS_P1;PMS_P2;Temp;Humidity;BMP_temperature;BMP_pressure;BME280_temperature;BME280_humidity;BME280_pressure;Samples;Min_cycle;Max_cycle;Signal;HPM_P1;HPM_P2
2020/12/22 00:00:02;;;;;;;15.07;9.38;;;;;;;5.41;71.65;100883.41;698031;28;14647;-63
2020/12/22 00:00:27;;;;;;;16.25;9.65;;;;;;;5.42;71.64;100884.25;694219;28;123384;-63
2020/12/22 00:00:48;;;;;;;15.00;9.27;;;;;;;5.41;71.78;100887.94;696232;28;39328;-63
2020/12/22 00:01:10;;;;;;;12.88;8.40;;;;;;;5.43;71.63;100891.31;698049;28;12209;-63
2020/12/22 00:01:32;;;;;;;13.68;8.95;;;;;;;5.44;71.71;100878.75;698630;28;1079;-63
2020/12/22 00:01:53;;;;;;;12.32;8.50;;;;;;;5.42;71.82;100884.25;697523;28;34055;-63
2020/12/22 00:02:14;;;;;;;13.35;8.90;;;;;;;5.43;71.67;100885.13;697832;28;15502;-63
2020/12/22 00:02:41;;;;;;;14.45;9.93;;;;;;;5.41;71.56;100886.09;697724;28;16679;-63
2020/12/22 00:03:02;;;;;;;14.55;9.60;;;;;;;5.43;71.75;100890.47;694460;28;120690;-63
2020/12/22 00:03:24;;;;;;;12.75;9.07;;;;;;;5.43;71.82;100880.59;698036;28;23459;-63
2020/12/22 00:03:45;;;;;;;13.70;8.73;;;;;;;5.43;71.60;100885.94;697165;28;39416;-62
2020/12/22 00:04:06;;;;;;;13.27;8.30;;;;;;;5.44;71.84;100897.50;697152;28;22750;-63
2020/12/22 00:04:27;;;;;;;12.63;8.47;;;;;;;5.46;71.78;100891.03;697922;28;23333;-63
2020/12/22 00:04:49;;;;;;;12.75;8.30;;;;;;;5.45;71.64;100883.97;696883;28;44752;-62
2020/12/22 00:05:12;;;;;;;14.38;9.13;;;;;;;5.47;71.60;100886.50;696954;28;23542;-63
2020/12/22 00:05:33;;;;;;;13.40;8.90;;;;;;;5.48;71.72;100885.53;695241;28;69480;-63
2020/12/22 00:05:54;;;;;;;14.48;8.75;;;;;;;5.49;71.62;100881.88;697675;28;22397;-62
2020/12/22 00:06:22;;;;;;;14.40;8.88;;;;;;;5.47;71.70;100884.69;696849;28;46392;-63
2020/12/22 00:06:43;;;;;;;13.10;8.65;;;;;;;5.47;71.63;100881.16;693517;28;138079;-63
2020/12/22 00:07:05;;;;;;;13.40;8.73;;;;;;;5.45;71.83;100883.97;696906;28;46622;-63
2020/12/22 00:07:29;;;;;;;15.43;9.40;;;;;;;5.46;71.84;100876.78;700460;28;9676;-63
2020/12/22 00:07:50;;;;;;;15.00;9.23;;;;;;;5.46;71.87;100882.16;697252;28;113644;-63
2020/12/22 00:08:12;;;;;;;15.40;9.40;;;;;;;5.44;71.80;100870.72;699775;28;22389;-63
2020/12/22 00:08:34;;;;;;;13.75;8.98;;;;;;;5.40;71.78;100867.47;699537;28;46126;-63
2020/12/22 00:08:55;;;;;;;13.13;8.82;;;;;;;5.39;71.87;100877.34;700853;28;8899;-63
2020/12/22 00:09:16;;;;;;;11.85;8.80;;;;;;;5.42;72.01;100870.84;699602;28;20117;-63
2020/12/22 00:09:38;;;;;;;13.30;8.55;;;;;;;5.43;72.01;100867.19;697969;28;21570;-63
2020/12/22 00:09:59;;;;;;;13.00;8.77;;;;;;;5.43;71.77;100869.88;697091;28;46309;-63
2020/12/22 00:10:20;;;;;;;11.05;8.10;;;;;;;5.43;71.89;100872.56;697789;28;14903;-63
2020/12/22 00:10:42;;;;;;;12.48;8.45;;;;;;;5.44;71.86;100871.59;697671;28;22231;-63
2020/12/22 00:11:04;;;;;;;13.60;9.40;;;;;;;5.45;71.96;100870.56;696757;28;20860;-63
2020/12/22 00:11:25;;;;;;;13.25;9.25;;;;;;;5.46;71.66;100872.28;696799;28;46073;-63
2020/12/22 00:11:46;;;;;;;14.00;9.02;;;;;;;5.46;71.82;100874.97;695579;28;1000;-63
2020/12/22 00:12:12;;;;;;;14.30;8.95;;;;;;;5.49;71.62;100868.47;694886;28;23470;-63
2020/12/22 00:12:33;;;;;;;13.43;8.98;;;;;;;5.47;71.88;100868.63;690794;28;135835;-62
2020/12/22 00:12:55;;;;;;;14.50;9.02;;;;;;;5.47;71.70;100868.63;694677;28;46322;-63
2020/12/22 00:13:16;;;;;;;15.38;8.77;;;;;;;5.49;71.75;100871.16;697674;28;22400;-62
2020/12/22 00:13:37;;;;;;;12.95;8.63;;;;;;;5.49;71.75;100872.00;697825;28;22415;-63
2020/12/22 00:13:59;;;;;;;13.93;8.68;;;;;;;5.48;71.74;100878.34;697411;28;23527;-62
2020/12/22 00:14:20;;;;;;;15.40;8.90;;;;;;;5.48;71.65;100872.13;697148;28;46395;-62
2020/12/22 00:14:42;;;;;;;15.32;9.68;;;;;;;5.46;71.92;100876.78;696638;28;45288;-62
2020/12/22 00:15:03;;;;;;;14.25;9.25;;;;;;;5.47;71.81;100873.13;697330;28;23473;-63
2020/12/22 00:15:25;;;;;;;12.90;8.77;;;;;;;5.47;71.89;100860.59;697704;28;21621;-63
2020/12/22 00:15:46;;;;;;;12.82;8.73;;;;;;;5.46;71.91;100864.25;696936;28;45278;-63
2020/12/22 00:16:07;;;;;;;14.20;9.40;;;;;;;5.48;71.72;100870.28;697806;28;22368;-63
2020/12/22 00:16:36;;;;;;;12.50;8.43;;;;;;;5.49;71.62;100865.81;697983;28;21527;-63
2020/12/22 00:16:58;;;;;;;13.13;9.15;;;;;;;5.49;71.63;100858.59;693555;28;137727;-63
2020/12/22 00:17:19;;;;;;;14.85;9.60;;;;;;;5.49;71.62;100865.81;696950;28;45273;-63
2020/12/22 00:17:42;;;;;;;14.00;9.20;;;;;;;5.45;71.90;100864.38;697859;28;22420;-63
2020/12/22 00:18:03;;;;;;;14.23;9.02;;;;;;;5.47;71.75;100860.59;696049;28;67634;-63
2020/12/22 00:18:25;;;;;;;14.02;9.02;;;;;;;5.49;71.75;100863.13;698083;28;21519;-63
2020/12/22 00:18:46;;;;;;;13.45;8.98;;;;;;;5.51;71.57;100859.28;697635;28;45335;-63
2020/12/22 00:19:07;;;;;;;12.48;8.60;;;;;;;5.51;71.78;100855.78;698203;28;25044;-63
2020/12/22 00:19:29;;;;;;;12.07;8.68;;;;;;;5.50;71.64;100856.75;698453;28;22415;-63
2020/12/22 00:19:50;;;;;;;13.02;9.02;;;;;;;5.49;71.85;100847.88;698387;28;23427;-63
2020/12/22 00:20:13;;;;;;;13.07;9.20;;;;;;;5.48;71.77;100862.25;698418;28;22386;-63
2020/12/22 00:20:35;;;;;;;16.25;9.88;;;;;;;5.49;71.70;100852.41;695990;28;92219;-63
2020/12/22 00:20:57;;;;;;;16.17;9.57;;;;;;;5.49;71.70;100855.91;696550;28;46306;-63
2020/12/22 00:21:19;;;;;;;15.00;9.60;;;;;;;5.49;71.61;100853.25;697821;28;22393;-62
2020/12/22 00:21:41;;;;;;;13.10;8.63;;;;;;;5.49;71.76;100863.97;698539;28;11918;-62
2020/12/22 00:22:02;;;;;;;13.48;8.77;;;;;;;5.50;71.71;100864.78;698103;28;27013;-63
2020/12/22 00:22:23;;;;;;;13.90;9.67;;;;;;;5.48;71.80;100856.91;698226;28;21474;-63
2020/12/22 00:22:47;;;;;;;17.02;9.68;;;;;;;5.50;71.92;100859.44;697088;28;45256;-62
2020/12/22 00:23:09;;;;;;;13.57;9.20;;;;;;;5.49;71.92;100855.09;695302;28;92316;-63
2020/12/22 00:23:31;;;;;;;12.93;8.73;;;;;;;5.50;71.90;100860.31;697925;28;22389;-62
2020/12/22 00:23:52;;;;;;;13.40;8.80;;;;;;;5.49;72.03;100869.31;697231;28;46331;-62
2020/12/22 00:24:13;;;;;;;15.15;9.00;;;;;;;5.49;71.87;100860.44;697738;28;23175;-62
2020/12/22 00:24:34;;;;;;;13.23;8.80;;;;;;;5.50;71.87;100860.31;698304;28;23486;-63
2020/12/22 00:24:55;;;;;;;11.98;8.60;;;;;;;5.51;71.88;100855.78;697339;28;44326;-63
2020/12/22 00:25:17;;;;;;;13.25;9.05;;;;;;;5.52;71.82;100855.63;698057;28;22401;-63
2020/12/22 00:25:41;;;;;;;13.35;8.82;;;;;;;5.54;71.87;100856.34;697194;28;46458;-63
2020/12/22 00:26:03;;;;;;;13.15;9.05;;;;;;;5.52;71.82;100862.84;696043;28;90764;-63
2020/12/22 00:26:24;;;;;;;14.57;9.15;;;;;;;5.53;71.91;100861.84;698131;28;23423;-63
2020/12/22 00:26:49;;;;;;;14.25;9.15;;;;;;;5.54;71.92;100858.19;698139;28;23493;-63
2020/12/22 00:27:10;;;;;;;12.48;8.93;;;;;;;5.53;71.93;100851.13;695000;28;113627;-63
2020/12/22 00:27:33;;;;;;;13.05;8.70;;;;;;;5.53;71.83;100851.13;698391;28;21365;-63
2020/12/22 00:27:54;;;;;;;13.18;9.02;;;;;;;5.52;71.96;100852.13;696511;28;69281;-63
2020/12/22 00:28:16;;;;;;;11.95;8.75;;;;;;;5.53;72.05;100849.31;698107;28;21085;-63
2020/12/22 00:28:37;;;;;;;12.98;9.00;;;;;;;5.54;71.92;100860.88;697450;28;45324;-63
2020/12/22 00:28:58;;;;;;;11.73;8.88;;;;;;;5.56;71.66;100853.50;698374;28;22417;-63
2020/12/22 00:29:20;;;;;;;15.77;9.07;;;;;;;5.55;71.85;100847.31;697601;28;44577;-63
2020/12/22 00:29:42;;;;;;;13.77;9.27;;;;;;;5.55;71.64;100849.16;697593;28;34127;-63
2020/12/22 00:30:04;;;;;;;14.65;9.20;;;;;;;5.53;71.67;100851.13;697673;28;35226;-63
2020/12/22 00:30:25;;;;;;;15.65;9.23;;;;;;;5.52;71.88;100846.78;698137;28;21519;-63
2020/12/22 00:30:49;;;;;;;12.93;9.00;;;;;;;5.49;71.91;100850.56;697626;28;45257;-62
2020/12/22 00:31:10;;;;;;;12.77;8.82;;;;;;;5.52;71.87;100852.13;696562;28;67638;-62
2020/12/22 00:31:35;;;;;;;13.07;8.90;;;;;;;5.53;71.80;100851.13;697557;28;45294;-62
2020/12/22 00:32:00;;;;;;;16.38;9.70;;;;;;;5.55;71.86;100851.84;693112;28;92231;-62
2020/12/22 00:32:21;;;;;;;13.93;9.52;;;;;;;5.56;71.80;100849.03;692797;28;138182;-63
2020/12/22 00:32:43;;;;;;;12.85;8.93;;;;;;;5.55;71.94;100841.97;696878;28;22402;-63
2020/12/22 00:33:05;;;;;;;12.45;9.05;;;;;;;5.54;71.94;100850.16;696002;28;44384;-63
2020/12/22 00:33:26;;;;;;;13.45;9.25;;;;;;;5.53;71.70;100846.63;697520;28;917;-63
2020/12/22 00:33:48;;;;;;;13.55;9.32;;;;;;;5.54;71.71;100844.78;696510;28;46342;-63
2020/12/22 00:34:09;;;;;;;15.48;9.65;;;;;;;5.53;71.83;100841.28;696869;28;46339;-63
2020/12/22 00:34:32;;;;;;;12.90;9.15;;;;;;;5.50;71.96;100841.56;698198;28;21553;-63
2020/12/22 00:34:54;;;;;;;13.23;9.27;;;;;;;5.51;71.82;100835.19;697419;28;46347;-63
2020/12/22 00:35:16;;;;;;;12.90;9.13;;;;;;;5.51;71.99;100840.53;697137;28;44446;-63
2020/12/22 00:35:37;;;;;;;12.95;8.82;;;;;;;5.53;71.84;100837.72;697612;28;44411;-63
2020/12/22 00:35:59;;;;;;;13.98;8.93;;;;;;;5.54;71.95;100836.75;695623;28;45252;-63
2020/12/22 00:36:21;;;;;;;13.93;9.10;;;;;;;5.54;71.85;100847.47;696907;28;23469;-63
2020/12/22 00:36:43;;;;;;;13.18;9.00;;;;;;;5.56;71.94;100834.75;695139;28;67527;-63
2020/12/22 00:37:04;;;;;;;13.20;9.07;;;;;;;5.58;71.90;100835.50;695351;28;22377;-63
2020/12/22 00:37:25;;;;;;;12.63;8.50;;;;;;;5.57;71.76;100833.78;695429;28;21558;-63
2020/12/22 00:37:47;;;;;;;13.10;8.95;;;;;;;5.59;71.79;100826.44;695913;28;22393;-63
2020/12/22 00:38:09;;;;;;;14.88;9.13;;;;;;;5.60;71.70;100825.47;697317;28;45951;-63
2020/12/22 00:38:30;;;;;;;13.75;9.65;;;;;;;5.56;71.73;100830.28;698426;28;7157;-63
2020/12/22 00:38:51;;;;;;;13.52;9.32;;;;;;;5.58;71.77;100836.31;697790;28;23447;-63
2020/12/22 00:39:13;;;;;;;12.75;8.80;;;;;;;5.56;71.86;100824.91;697923;28;23639;-63
2020/12/22 00:39:34;;;;;;;12.98;9.18;;;;;;;5.56;71.87;100832.94;697248;28;43947;-62
2020/12/22 00:39:55;;;;;;;15.15;9.95;;;;;;;5.56;71.66;100830.28;698129;28;22221;-63
2020/12/22 00:40:16;;;;;;;13.38;9.52;;;;;;;5.56;71.89;100829.41;697545;28;39670;-63
2020/12/22 00:40:38;;;;;;;13.07;8.95;;;;;;;5.56;71.85;100826.72;698513;28;22382;-63
2020/12/22 00:41:00;;;;;;;14.38;8.85;;;;;;;5.55;71.76;100828.56;697464;28;46329;-62
2020/12/22 00:41:21;;;;;;;14.52;9.52;;;;;;;5.58;72.02;100822.09;698084;28;23506;-63
2020/12/22 00:41:42;;;;;;;15.52;10.00;;;;;;;5.56;71.90;100830.28;698043;28;21661;-63
2020/12/22 00:42:04;;;;;;;14.23;9.45;;;;;;;5.55;71.99;100830.41;698067;28;18035;-63
2020/12/22 00:42:27;;;;;;;11.77;8.80;;;;;;;5.54;71.90;100829.53;697827;28;33405;-63
2020/12/22 00:42:48;;;;;;;13.05;9.35;;;;;;;5.54;71.95;100829.53;697389;28;41518;-63
2020/12/22 00:43:10;;;;;;;14.15;9.27;;;;;;;5.56;71.98;100830.28;698398;28;13192;-63
2020/12/22 00:43:31;;;;;;;15.23;9.05;;;;;;;5.56;71.85;100832.94;698172;28;22386;-63
2020/12/22 00:43:53;;;;;;;14.38;9.32;;;;;;;5.56;71.74;100830.28;697597;28;44416;-63
2020/12/22 00:44:14;;;;;;;14.27;9.02;;;;;;;5.57;71.97;100823.91;697941;28;22803;-63
2020/12/22 00:44:35;;;;;;;13.55;8.90;;;;;;;5.58;71.84;100824.78;698365;28;22400;-63
2020/12/22 00:44:57;;;;;;;13.40;9.00;;;;;;;5.60;71.84;100823.63;697529;28;46341;-63
2020/12/22 00:45:19;;;;;;;12.57;9.02;;;;;;;5.59;71.93;100824.63;697859;28;22382;-63
2020/12/22 00:45:40;;;;;;;14.55;10.00;;;;;;;5.59;71.66;100819.28;698404;28;15213;-63
2020/12/22 00:46:01;;;;;;;14.90;9.68;;;;;;;5.59;71.67;100816.59;698069;28;16044;-63
2020/12/22 00:46:24;;;;;;;15.15;9.52;;;;;;;5.58;71.65;100817.56;696828;28;46281;-63
2020/12/22 00:46:46;;;;;;;12.93;8.98;;;;;;;5.60;71.81;100817.44;696963;28;38486;-63
2020/12/22 00:47:07;;;;;;;12.82;8.80;;;;;;;5.63;71.58;100825.19;697315;28;21511;-63
2020/12/22 00:47:28;;;;;;;12.90;8.75;;;;;;;5.62;71.95;100817.28;698143;28;22376;-63
2020/12/22 00:47:50;;;;;;;12.48;9.02;;;;;;;5.64;71.58;100816.13;698852;28;862;-63
2020/12/22 00:48:12;;;;;;;13.55;9.63;;;;;;;5.64;71.73;100820.66;696410;28;21865;-63
2020/12/22 00:48:33;;;;;;;13.35;9.07;;;;;;;5.66;71.46;100807.94;696759;28;22422;-63
2020/12/22 00:48:55;;;;;;;15.63;9.68;;;;;;;5.66;71.38;100814.19;693915;28;32051;-64
2020/12/22 00:49:18;;;;;;;12.80;9.07;;;;;;;5.66;71.67;100808.81;696476;28;58219;-63
2020/12/22 00:49:39;;;;;;;12.07;9.18;;;;;;;5.64;71.71;100805.41;698139;28;22634;-63
2020/12/22 00:50:01;;;;;;;13.57;9.65;;;;;;;5.65;71.56;100806.28;697819;28;44406;-63
2020/12/22 00:50:23;;;;;;;13.30;9.75;;;;;;;5.64;71.56;100807.25;700608;28;22554;-63
2020/12/22 00:50:45;;;;;;;12.55;9.18;;;;;;;5.63;71.76;100810.91;699032;28;69806;-63
2020/12/22 00:51:06;;;;;;;14.45;9.63;;;;;;;5.64;71.59;100800.06;698948;28;22429;-63
2020/12/22 00:51:28;;;;;;;14.55;9.98;;;;;;;5.65;71.64;100807.13;697084;28;45443;-63
2020/12/22 00:51:57;;;;;;;14.00;9.40;;;;;;;5.61;71.71;100805.69;694837;28;103811;-63
2020/12/22 00:52:18;;;;;;;13.43;9.10;;;;;;;5.62;71.87;100804.72;696454;28;113837;-63
2020/12/22 00:52:40;;;;;;;15.80;9.27;;;;;;;5.64;71.65;100799.22;699363;28;21066;-63
2020/12/22 00:53:07;;;;;;;14.63;9.25;;;;;;;5.62;71.87;100803.88;693669;28;138714;-63
2020/12/22 00:53:28;;;;;;;13.25;9.18;;;;;;;5.60;71.72;100799.50;697926;28;21356;-63
2020/12/22 00:53:50;;;;;;;13.95;9.35;;;;;;;5.59;71.92;100800.50;694224;28;44317;-63
2020/12/22 00:54:12;;;;;;;14.23;9.23;;;;;;;5.60;71.79;100796.81;694134;28;44405;-63
2020/12/22 00:54:34;;;;;;;14.90;8.98;;;;;;;5.59;71.71;100791.59;694079;28;46344;-63
2020/12/22 00:54:56;;;;;;;13.77;9.30;;;;;;;5.62;71.66;100798.53;694549;28;45232;-63
2020/12/22 00:55:17;;;;;;;14.10;9.07;;;;;;;5.64;71.79;100813.44;697632;28;21531;-63
2020/12/22 00:55:42;;;;;;;13.25;9.00;;;;;;;5.67;71.74;100791.72;694395;28;92340;-62
2020/12/22 00:56:03;;;;;;;13.80;9.20;;;;;;;5.65;71.57;100790.19;694293;28;46303;-62
2020/12/22 00:56:26;;;;;;;13.05;8.95;;;;;;;5.67;71.60;100799.78;699281;28;981;-62
2020/12/22 00:56:52;;;;;;;13.25;9.25;;;;;;;5.67;71.64;100798.94;692678;28;128220;-63
2020/12/22 00:57:22;;;;;;;13.73;8.85;;;;;;;5.66;71.67;100798.09;687083;28;136177;-63
2020/12/22 00:57:57;;;;;;;15.48;9.73;;;;;;;5.64;71.56;100797.38;691653;28;137741;-63
2020/12/22 00:58:19;;;;;;;16.10;9.38;;;;;;;5.64;71.72;100796.53;692498;28;46372;-63
2020/12/22 00:58:41;;;;;;;14.52;9.68;;;;;;;5.64;71.80;100794.69;696531;28;1260;-63
2020/12/22 00:59:03;;;;;;;14.50;9.70;;;;;;;5.63;71.80;100801.06;698765;28;886;-63
2020/12/22 00:59:24;;;;;;;13.80;9.20;;;;;;;5.65;71.63;100792.88;700587;28;40021;-63
2020/12/22 00:59:45;;;;;;;12.95;9.07;;;;;;;5.65;71.65;100796.41;702367;28;6319;-63
2020/12/22 01:00:11;;;;;;;13.80;9.27;;;;;;;5.67;71.60;100790.91;698121;28;44402;-63
2020/12/22 01:00:32;;;;;;;13.10;8.52;;;;;;;5.64;71.72;100783.13;696492;28;115071;-63
2020/12/22 01:00:54;;;;;;;13.55;8.95;;;;;;;5.63;71.76;100790.34;697380;28;46304;-63
2020/12/22 01:01:16;;;;;;;12.45;8.85;;;;;;;5.62;71.76;100783.28;697131;28;46412;-63
2020/12/22 01:01:37;;;;;;;11.80;8.80;;;;;;;5.66;71.75;100786.50;698694;28;8910;-63
2020/12/22 01:02:03;;;;;;;12.57;8.90;;;;;;;5.65;71.75;100785.69;698406;28;9646;-63
2020/12/22 01:02:24;;;;;;;12.93;9.00;;;;;;;5.67;71.71;100781.00;693171;28;161348;-63
2020/12/22 01:02:46;;;;;;;14.02;9.30;;;;;;;5.68;71.71;100790.75;697182;28;45209;-63
2020/12/22 01:03:07;;;;;;;13.40;9.23;;;;;;;5.69;71.67;100786.22;697859;28;22413;-63
2020/12/22 01:03:29;;;;;;;13.85;9.05;;;;;;;5.69;71.83;100779.06;697546;28;44530;-63
2020/12/22 01:03:50;;;;;;;14.52;9.10;;;;;;;5.69;71.49;100781.72;699942;28;22445;-63
2020/12/22 01:04:12;;;;;;;14.80;9.88;;;;;;;5.67;71.64;100780.19;700445;28;21331;-63
2020/12/22 01:04:33;;;;;;;14.00;9.98;;;;;;;5.68;71.63;100780.03;700451;28;35511;-63
2020/12/22 01:04:54;;;;;;;13.35;9.57;;;;;;;5.68;71.78;100782.72;700838;28;6701;-63
2020/12/22 01:05:16;;;;;;;15.07;9.95;;;;;;;5.68;71.56;100781.88;699631;28;43183;-63
2020/12/22 01:05:39;;;;;;;14.32;9.55;;;;;;;5.66;71.64;100782.03;700871;28;845;-63
2020/12/22 01:06:01;;;;;;;13.75;8.73;;;;;;;5.67;71.67;100786.38;698502;28;15081;-63
2020/12/22 01:06:22;;;;;;;15.90;9.65;;;;;;;5.64;71.88;100780.47;698252;28;7527;-63
2020/12/22 01:06:43;;;;;;;15.50;9.15;;;;;;;5.64;71.84;100781.31;698329;28;11590;-62
2020/12/22 01:07:04;;;;;;;16.00;9.65;;;;;;;5.66;71.72;100781.16;697726;28;22450;-63
2020/12/22 01:07:26;;;;;;;15.40;10.13;;;;;;;5.64;71.92;100773.25;697694;28;40267;-63
2020/12/22 01:07:48;;;;;;;13.55;9.02;;;;;;;5.66;71.61;100776.66;698289;28;21669;-63
2020/12/22 01:08:10;;;;;;;12.27;8.82;;;;;;;5.69;71.84;100778.19;696355;28;69473;-65
2020/12/22 01:08:31;;;;;;;13.77;9.07;;;;;;;5.69;71.69;100771.00;698568;28;23439;-65
2020/12/22 01:08:53;;;;;;;14.38;9.35;;;;;;;5.71;71.61;100771.69;697963;28;21556;-65
2020/12/22 01:09:14;;;;;;;14.05;9.43;;;;;;;5.71;71.63;100770.88;697193;28;46474;-65
2020/12/22 01:09:35;;;;;;;12.73;9.05;;;;;;;5.71;71.60;100770.88;698265;28;22308;-65
2020/12/22 01:09:56;;;;;;;15.13;9.02;;;;;;;5.71;71.61;100778.91;698189;28;23544;-65
2020/12/22 01:10:17;;;;;;;13.33;8.93;;;;;;;5.71;71.65;100773.56;698344;28;21567;-65
2020/12/22 01:10:39;;;;;;;13.55;9.27;;;;;;;5.73;71.59;100766.19;697573;28;46306;-65
2020/12/22 01:11:00;;;;;;;14.95;9.73;;;;;;;5.73;71.58;100764.34;698068;28;15492;-65
2020/12/22 01:11:23;;;;;;;12.95;9.32;;;;;;;5.74;71.59;100770.59;697226;28;46177;-65
2020/12/22 01:11:44;;;;;;;13.45;8.88;;;;;;;5.74;71.51;100767.91;695811;28;46599;-65
2020/12/22 01:12:06;;;;;;;13.15;9.40;;;;;;;5.72;71.50;100768.03;698004;28;23380;-65
2020/12/22 01:12:27;;;;;;;13.95;9.60;;;;;;;5.72;71.51;100772.53;697294;28;45193;-65
2020/12/22 01:12:49;;;;;;;14.23;9.40;;;;;;;5.74;71.46;100768.75;696074;28;23462;-65
2020/12/22 01:13:10;;;;;;;15.70;9.88;;;;;;;5.74;71.65;100767.91;695606;28;70305;-65
2020/12/22 01:13:32;;;;;;;12.95;9.63;;;;;;;5.73;71.60;100768.88;698682;28;46273;-65
2020/12/22 01:13:53;;;;;;;12.77;9.20;;;;;;;5.73;71.69;100758.16;699403;28;23489;-65
2020/12/22 01:14:15;;;;;;;13.90;9.50;;;;;;;5.72;71.40;100754.66;698262;28;45076;-65
2020/12/22 01:14:36;;;;;;;15.07;9.65;;;;;;;5.74;71.56;100757.19;699363;28;22505;-65
2020/12/22 01:14:58;;;;;;;14.48;9.63;;;;;;;5.73;71.56;100756.31;698179;28;22382;-65
2020/12/22 01:15:20;;;;;;;14.48;9.63;;;;;;;5.74;71.58;100754.50;697166;28;45787;-65
2020/12/22 01:15:41;;;;;;;14.85;9.15;;;;;;;5.74;71.56;100754.50;697196;28;46563;-65
2020/12/22 01:16:02;;;;;;;14.52;9.32;;;;;;;5.72;71.74;100760.00;698266;28;22397;-65
2020/12/22 01:16:24;;;;;;;13.88;9.30;;;;;;;5.75;71.52;100748.13;697530;28;46280;-65
2020/12/22 01:16:45;;;;;;;14.90;9.55;;;;;;;5.77;71.51;100747.00;697893;28;23484;-65
2020/12/22 01:17:07;;;;;;;14.48;9.15;;;;;;;5.76;71.53;100742.63;696806;28;45956;-65
2020/12/22 01:17:28;;;;;;;13.10;9.23;;;;;;;5.76;71.38;100749.84;698054;28;22415;-65
2020/12/22 01:17:50;;;;;;;12.73;9.40;;;;;;;5.72;71.63;100746.59;697621;28;16316;-66
2020/12/22 01:18:11;;;;;;;13.95;9.48;;;;;;;5.73;71.49;100748.28;696912;28;46491;-65
2020/12/22 01:18:32;;;;;;;14.60;9.32;;;;;;;5.74;71.57;100744.63;698169;28;22345;-65
2020/12/22 01:18:53;;;;;;;14.18;9.10;;;;;;;5.74;71.58;100746.47;698046;28;22405;-65
2020/12/22 01:19:15;;;;;;;13.52;9.35;;;;;;;5.77;71.50;100738.97;697308;28;47170;-65
2020/12/22 01:19:36;;;;;;;15.30;9.57;;;;;;;5.78;71.54;100745.16;698267;28;22406;-65
2020/12/22 01:19:58;;;;;;;14.25;9.55;;;;;;;5.76;71.38;100741.78;697447;28;45574;-65
2020/12/22 01:20:19;;;;;;;14.98;9.63;;;;;;;5.77;71.44;100738.13;698304;28;21410;-65
2020/12/22 01:20:41;;;;;;;14.90;9.43;;;;;;;5.78;71.58;100737.13;697981;28;22377;-65
2020/12/22 01:21:03;;;;;;;13.52;9.52;;;;;;;5.77;71.40;100728.25;698425;28;10111;-65
2020/12/22 01:21:24;;;;;;;13.25;9.52;;;;;;;5.76;71.59;100733.75;697478;28;44393;-65
2020/12/22 01:21:46;;;;;;;13.70;9.20;;;;;;;5.75;71.52;100727.56;698170;28;21544;-65
2020/12/22 01:22:07;;;;;;;14.33;9.10;;;;;;;5.74;71.85;100733.06;696284;28;69553;-65
2020/12/22 01:22:29;;;;;;;13.50;8.80;;;;;;;5.74;71.56;100733.91;697229;28;44413;-65
2020/12/22 01:22:50;;;;;;;14.30;9.20;;;;;;;5.75;71.74;100734.72;697527;28;44418;-65
2020/12/22 01:23:12;;;;;;;15.50;10.30;;;;;;;5.73;71.37;100729.53;698164;28;22366;-65
2020/12/22 01:23:35;;;;;;;14.85;9.98;;;;;;;5.74;71.40;100741.94;698693;28;1056;-65
2020/12/22 01:23:57;;;;;;;14.50;10.00;;;;;;;5.75;71.43;100730.25;696437;28;67523;-65
2020/12/22 01:24:19;;;;;;;15.20;9.60;;;;;;;5.77;71.49;100728.25;696273;28;45354;-65
2020/12/22 01:24:40;;;;;;;13.48;9.35;;;;;;;5.77;71.52;100728.25;698179;28;16835;-65
2020/12/22 01:25:01;;;;;;;13.38;9.60;;;;;;;5.75;71.43;100724.88;697309;28;23491;-65
2020/12/22 01:25:22;;;;;;;13.43;9.63;;;;;;;5.73;71.46;100726.00;697928;28;22421;-65
2020/12/22 01:25:44;;;;;;;13.40;9.52;;;;;;;5.71;71.59;100728.81;697127;28;46308;-65
2020/12/22 01:26:06;;;;;;;13.68;9.48;;;;;;;5.76;71.54;100717.69;698158;28;23330;-65
2020/12/22 01:26:27;;;;;;;15.10;9.65;;;;;;;5.76;71.61;100715.00;697520;28;46240;-65
2020/12/22 01:26:48;;;;;;;14.52;9.50;;;;;;;5.76;71.56;100720.34;698110;28;22337;-65
2020/12/22 01:27:10;;;;;;;14.13;9.50;;;;;;;5.76;71.66;100723.88;697429;28;45161;-66
2020/12/22 01:27:31;;;;;;;13.63;9.63;;;;;;;5.76;71.41;100723.88;697964;28;24602;-65
2020/12/22 01:27:53;;;;;;;14.43;9.57;;;;;;;5.78;71.58;100721.03;697076;28;46330;-65
2020/12/22 01:28:14;;;;;;;13.88;9.48;;;;;;;5.78;71.54;100726.41;697903;28;15332;-65
2020/12/22 01:28:35;;;;;;;14.93;9.60;;;;;;;5.77;71.43;100720.22;698300;28;22403;-65
2020/12/22 01:28:57;;;;;;;14.65;9.60;;;;;;;5.77;71.51;100717.53;698117;28;22239;-65
2020/12/22 01:29:18;;;;;;;14.00;8.95;;;;;;;5.78;71.57;100726.41;697446;28;46364;-65
2020/12/22 01:29:40;;;;;;;14.70;9.52;;;;;;;5.78;71.36;100721.03;697434;28;46336;-65
2020/12/22 01:30:01;;;;;;;13.23;9.23;;;;;;;5.77;71.51;100722.88;697680;28;21630;-65
2020/12/22 01:30:22;;;;;;;13.43;8.93;;;;;;;5.77;71.56;100722.88;697925;28;23521;-65
2020/12/22 01:30:44;;;;;;;14.50;9.10;;;;;;;5.77;71.57;100727.41;698002;28;21515;-65
2020/12/22 01:31:05;;;;;;;14.50;9.27;;;;;;;5.76;71.64;100729.22;698297;28;995;-65
2020/12/22 01:31:28;;;;;;;14.88;9.60;;;;;;;5.77;71.68;100730.94;698532;28;22385;-65
2020/12/22 01:31:49;;;;;;;14.00;9.52;;;;;;;5.79;71.58;100730.78;696803;28;64316;-65
2020/12/22 01:32:11;;;;;;;14.18;9.73;;;;;;;5.79;71.60;100722.75;697760;28;23422;-65
2020/12/22 01:32:32;;;;;;;13.05;9.25;;;;;;;5.77;71.40;100730.94;697230;28;44097;-65
2020/12/22 01:32:53;;;;;;;14.18;9.25;;;;;;;5.79;71.58;100730.78;697998;28;23513;-65
2020/12/22 01:33:14;;;;;;;14.68;9.65;;;;;;;5.80;71.44;100734.28;698183;28;23477;-65
2020/12/22 01:33:35;;;;;;;13.30;9.45;;;;;;;5.81;71.46;100720.75;698237;28;23485;-65
2020/12/22 01:33:59;;;;;;;13.75;9.52;;;;;;;5.83;71.34;100732.19;697434;28;44224;-65
2020/12/22 01:34:20;;;;;;;14.70;9.63;;;;;;;5.83;71.42;100726.81;695305;28;69544;-65
2020/12/22 01:34:41;;;;;;;14.27;9.82;;;;;;;5.82;71.37;100735.03;698024;28;22354;-65
2020/12/22 01:35:03;;;;;;;13.13;9.20;;;;;;;5.81;71.53;100731.47;697853;28;23463;-65
2020/12/22 01:35:24;;;;;;;13.85;8.77;;;;;;;5.84;71.36;100733.84;697499;28;46418;-65
2020/12/22 01:35:47;;;;;;;14.10;8.88;;;;;;;5.84;71.40;100725.81;698226;28;22384;-65
2020/12/22 01:36:08;;;;;;;12.85;8.63;;;;;;;5.84;71.48;100733.03;696159;28;68452;-65
2020/12/22 01:36:31;;;;;;;12.90;9.18;;;;;;;5.83;71.31;100728.66;697912;28;22413;-65
2020/12/22 01:36:52;;;;;;;14.98;9.57;;;;;;;5.85;71.30;100730.19;696613;28;69376;-65
2020/12/22 01:37:13;;;;;;;14.45;9.55;;;;;;;5.83;71.45;100724.16;698148;28;21346;-65
2020/12/22 01:37:35;;;;;;;13.57;9.07;;;;;;;5.85;71.38;100722.16;697942;28;22198;-65
2020/12/22 01:37:56;;;;;;;14.23;9.32;;;;;;;5.86;71.42;100720.31;697118;28;46004;-65
2020/12/22 01:38:17;;;;;;;13.98;9.27;;;;;;;5.85;71.22;100719.47;698853;28;1340;-65
2020/12/22 01:38:39;;;;;;;14.15;9.60;;;;;;;5.82;71.52;100711.72;697712;28;37780;-65
2020/12/22 01:39:00;;;;;;;14.95;9.93;;;;;;;5.84;71.33;100725.81;698870;28;893;-65
2020/12/22 01:39:22;;;;;;;14.30;9.55;;;;;;;5.86;71.49;100714.94;698243;28;23526;-65
2020/12/22 01:39:43;;;;;;;14.57;9.75;;;;;;;5.87;71.29;100714.81;698154;28;27942;-65
2020/12/22 01:40:04;;;;;;;14.75;9.70;;;;;;;5.86;71.44;100712.28;698557;28;954;-65
2020/12/22 01:40:26;;;;;;;14.23;9.20;;;;;;;5.86;71.09;100709.59;696546;28;45197;-65
2020/12/22 01:40:48;;;;;;;15.00;9.45;;;;;;;5.84;71.25;100709.72;697955;28;21493;-65
2020/12/22 01:41:10;;;;;;;14.20;9.95;;;;;;;5.85;71.38;100716.78;697321;28;45129;-65
2020/12/22 01:41:32;;;;;;;12.52;9.38;;;;;;;5.85;71.43;100715.97;697373;28;46973;-65
2020/12/22 01:41:53;;;;;;;14.82;9.57;;;;;;;5.84;71.51;100716.94;697371;28;39468;-65
2020/12/22 01:42:14;;;;;;;15.30;9.48;;;;;;;5.85;71.49;100716.78;698213;28;23485;-65
2020/12/22 01:42:36;;;;;;;16.77;10.82;;;;;;;5.85;71.38;100714.13;697871;28;22428;-65
2020/12/22 01:42:57;;;;;;;16.23;10.10;;;;;;;5.84;71.45;100715.09;697364;28;46347;-65